createdAt,value
2022-10-13T00:00:42.633Z,13.51
2022-10-13T00:03:09.256Z,13.80
2022-10-13T00:05:41.208Z,13.83
2022-10-13T00:08:08.026Z,13.79
2022-10-13T00:10:42.553Z,13.81
2022-10-13T00:13:11.866Z,13.87
2022-10-13T00:15:43.964Z,13.86
2022-10-13T00:18:10.691Z,13.82
2022-10-13T00:20:41.859Z,13.79
2022-10-13T00:23:08.746Z,13.86
2022-10-13T00:25:35.306Z,13.55
2022-10-13T00:28:01.914Z,13.18
2022-10-13T00:30:35.233Z,13.74
2022-10-13T00:33:01.791Z,13.78
2022-10-13T00:35:28.325Z,13.49
2022-10-13T00:37:54.884Z,13.71
2022-10-13T00:40:21.429Z,13.74
2022-10-13T00:42:47.991Z,13.86
2022-10-13T00:45:17.523Z,13.81
2022-10-13T00:47:48.296Z,13.85
2022-10-13T00:50:19.604Z,13.84
2022-10-13T00:52:51.780Z,13.72
2022-10-13T00:55:25.311Z,13.95
2022-10-13T00:57:55.774Z,13.84
2022-10-13T01:00:30.213Z,13.97
2022-10-13T01:02:57.299Z,14.09
2022-10-13T01:05:25.560Z,14.09
2022-10-13T01:07:56.691Z,14.15
2022-10-13T01:10:46.433Z,14.17
2022-10-13T01:13:28.267Z,13.97
2022-10-13T01:16:05.858Z,13.83
2022-10-13T01:18:32.297Z,13.79
2022-10-13T01:21:21.842Z,13.74
2022-10-13T01:24:06.363Z,13.72
2022-10-13T01:26:54.279Z,13.50
2022-10-13T01:29:51.129Z,13.59
2022-10-13T01:32:52.140Z,13.65
2022-10-13T01:35:58.085Z,13.52
2022-10-13T01:38:44.827Z,13.48
2022-10-13T01:41:19.519Z,13.46
2022-10-13T01:43:56.087Z,13.34
2022-10-13T01:46:26.632Z,13.22
2022-10-13T01:48:56.394Z,13.32
2022-10-13T01:51:26.475Z,13.33
2022-10-13T01:53:53.244Z,13.45
2022-10-13T01:56:19.804Z,13.51
2022-10-13T01:58:49.784Z,13.57
2022-10-13T02:01:54.183Z,13.53
2022-10-13T02:04:31.765Z,13.17
2022-10-13T02:07:06.164Z,13.49
2022-10-13T02:09:57.822Z,13.30
2022-10-13T02:12:29.338Z,13.32
2022-10-13T02:14:58.099Z,13.08
2022-10-13T02:17:27.221Z,13.26
2022-10-13T02:19:54.866Z,13.10
2022-10-13T02:22:26.832Z,12.95
2022-10-13T02:24:55.183Z,12.86
2022-10-13T02:27:23.178Z,12.94
2022-10-13T02:29:53.810Z,12.79
2022-10-13T02:32:21.784Z,12.59
2022-10-13T02:34:49.177Z,12.56
2022-10-13T02:37:16.079Z,12.90
2022-10-13T02:39:42.838Z,12.95
2022-10-13T02:42:11.193Z,13.00
2022-10-13T02:44:37.787Z,12.82
2022-10-13T02:47:04.357Z,12.85
2022-10-13T02:49:31.043Z,12.77
2022-10-13T02:51:57.643Z,12.97
2022-10-13T02:54:24.187Z,12.77
2022-10-13T02:56:50.734Z,12.97
2022-10-13T02:59:17.482Z,12.83
2022-10-13T03:01:44.582Z,12.55
2022-10-13T03:04:11.601Z,12.69
2022-10-13T03:06:38.412Z,12.82
2022-10-13T03:09:05.456Z,12.89
2022-10-13T03:11:31.962Z,12.66
2022-10-13T03:13:58.485Z,12.97
2022-10-13T03:16:25.063Z,13.18
2022-10-13T03:18:51.597Z,13.18
2022-10-13T03:21:18.201Z,13.13
2022-10-13T03:23:44.697Z,12.94
2022-10-13T03:26:11.425Z,12.81
2022-10-13T03:28:38.003Z,12.96
2022-10-13T03:31:07.439Z,12.96
2022-10-13T03:33:33.957Z,12.95
2022-10-13T03:36:02.278Z,13.03
2022-10-13T03:38:30.666Z,12.95
2022-10-13T03:40:57.212Z,12.76
2022-10-13T03:43:25.404Z,12.68
2022-10-13T03:46:00.205Z,12.87
2022-10-13T03:48:28.439Z,13.04
2022-10-13T03:50:55.690Z,13.06
2022-10-13T03:53:22.345Z,12.94
2022-10-13T03:55:51.248Z,13.03
2022-10-13T03:58:18.295Z,12.91
2022-10-13T04:00:46.966Z,12.84
2022-10-13T04:03:13.982Z,12.87
2022-10-13T04:05:40.691Z,13.11
2022-10-13T04:08:08.048Z,13.14
2022-10-13T04:10:34.627Z,12.88
2022-10-13T04:13:01.234Z,12.67
2022-10-13T04:15:27.956Z,12.67
2022-10-13T04:17:54.485Z,12.86
2022-10-13T04:20:21.021Z,12.91
2022-10-13T04:22:47.540Z,12.84
2022-10-13T04:25:14.091Z,12.89
2022-10-13T04:27:40.701Z,12.57
2022-10-13T04:30:07.897Z,12.66
2022-10-13T04:32:34.424Z,12.57
2022-10-13T04:35:02.391Z,12.44
2022-10-13T04:37:29.498Z,12.20
2022-10-13T04:39:56.425Z,12.13
2022-10-13T04:42:23.752Z,12.33
2022-10-13T04:44:50.280Z,12.58
2022-10-13T04:47:20.840Z,12.66
2022-10-13T04:49:47.373Z,12.68
2022-10-13T04:52:14.073Z,12.51
2022-10-13T04:54:40.639Z,12.17
2022-10-13T04:57:07.154Z,12.24
2022-10-13T04:59:33.711Z,12.56
2022-10-13T05:02:00.254Z,12.29
2022-10-13T05:04:26.775Z,12.35
2022-10-13T05:07:16.427Z,12.35
2022-10-13T05:09:39.990Z,12.31
2022-10-13T05:12:10.270Z,12.57
2022-10-13T05:14:36.832Z,12.34
2022-10-13T05:17:08.430Z,12.33
2022-10-13T05:19:34.999Z,12.16
2022-10-13T05:22:01.512Z,12.21
2022-10-13T05:24:36.674Z,12.51
2022-10-13T05:27:09.627Z,12.43
2022-10-13T05:29:36.608Z,12.71
2022-10-13T05:32:03.502Z,12.98
2022-10-13T05:34:30.475Z,13.04
2022-10-13T05:36:57.000Z,13.01
2022-10-13T05:39:23.582Z,13.05
2022-10-13T05:41:50.215Z,13.04
2022-10-13T05:44:20.891Z,13.03
2022-10-13T05:46:53.751Z,12.93
2022-10-13T05:49:20.312Z,12.71
2022-10-13T05:51:56.676Z,12.74
2022-10-13T05:54:42.440Z,12.63
2022-10-13T05:57:15.702Z,12.64
2022-10-13T05:59:48.842Z,12.52
2022-10-13T06:02:17.377Z,12.74
2022-10-13T06:04:48.974Z,12.51
2022-10-13T06:07:15.491Z,12.33
2022-10-13T06:09:42.710Z,12.11
2022-10-13T06:12:10.281Z,12.08
2022-10-13T06:14:36.887Z,12.19
2022-10-13T06:17:06.831Z,12.32
2022-10-13T06:19:33.651Z,12.29
2022-10-13T06:22:07.038Z,12.13
2022-10-13T06:24:33.831Z,12.13
2022-10-13T06:27:00.361Z,12.01
2022-10-13T06:29:26.961Z,12.02
2022-10-13T06:31:53.475Z,12.19
2022-10-13T06:34:19.991Z,12.16
2022-10-13T06:36:47.230Z,12.27
2022-10-13T06:39:14.430Z,11.95
2022-10-13T06:41:40.935Z,12.10
2022-10-13T06:44:07.542Z,12.14
2022-10-13T06:46:34.086Z,12.14
2022-10-13T06:49:00.653Z,12.25
2022-10-13T06:51:28.006Z,12.23
2022-10-13T06:53:56.731Z,12.07
2022-10-13T06:56:25.477Z,12.03
2022-10-13T06:58:52.021Z,12.26
2022-10-13T07:01:18.641Z,12.29
2022-10-13T07:03:48.799Z,12.26
2022-10-13T07:06:18.523Z,12.20
2022-10-13T07:08:45.061Z,12.28
2022-10-13T07:11:16.145Z,12.17
2022-10-13T07:13:46.297Z,12.12
2022-10-13T07:16:15.568Z,12.06
2022-10-13T07:18:42.322Z,12.22
2022-10-13T07:21:09.550Z,12.05
2022-10-13T07:23:36.101Z,12.22
2022-10-13T07:26:07.694Z,12.36
2022-10-13T07:28:34.502Z,12.34
2022-10-13T07:31:06.990Z,12.32
2022-10-13T07:33:36.851Z,12.34
2022-10-13T07:36:04.381Z,12.41
2022-10-13T07:38:30.940Z,12.47
2022-10-13T07:41:01.574Z,12.54
2022-10-13T07:43:28.583Z,12.68
2022-10-13T07:45:58.917Z,12.80
2022-10-13T07:48:27.007Z,12.88
2022-10-13T07:50:54.425Z,13.01
2022-10-13T07:53:20.994Z,12.99
2022-10-13T07:55:47.572Z,12.97
2022-10-13T07:58:14.170Z,13.04
2022-10-13T08:00:40.927Z,13.14
2022-10-13T08:03:07.703Z,13.35
2022-10-13T08:05:36.278Z,13.38
2022-10-13T08:08:04.035Z,13.38
2022-10-13T08:10:30.686Z,13.28
2022-10-13T08:12:57.204Z,13.44
2022-10-13T08:15:23.733Z,13.50
2022-10-13T08:17:50.286Z,13.53
2022-10-13T08:20:17.135Z,13.70
2022-10-13T08:22:43.678Z,13.53
2022-10-13T08:25:10.520Z,13.50
2022-10-13T08:27:50.648Z,13.47
2022-10-13T08:30:17.939Z,13.52
2022-10-13T08:32:44.631Z,13.60
2022-10-13T08:35:11.644Z,13.68
2022-10-13T08:37:38.237Z,13.74
2022-10-13T08:40:05.176Z,13.76
2022-10-13T08:42:32.174Z,13.79
2022-10-13T08:47:55.427Z,13.82
2022-10-13T08:50:25.362Z,13.91
2022-10-13T08:53:01.735Z,13.98
2022-10-13T08:55:50.089Z,14.01
2022-10-13T08:58:33.602Z,14.01
2022-10-13T09:01:05.492Z,14.11
2022-10-13T09:03:32.048Z,14.15
2022-10-13T09:06:00.975Z,14.14
2022-10-13T09:08:40.969Z,14.25
2022-10-13T09:11:10.369Z,14.33
2022-10-13T09:13:36.893Z,14.39
2022-10-13T09:16:03.537Z,14.43
2022-10-13T09:18:32.694Z,14.50
2022-10-13T09:21:19.208Z,14.60
2022-10-13T09:23:46.372Z,14.70
2022-10-13T09:26:20.344Z,14.80
2022-10-13T09:28:48.307Z,14.93
2022-10-13T09:31:27.620Z,15.02
2022-10-13T09:34:00.789Z,14.98
2022-10-13T09:36:28.113Z,14.99
2022-10-13T09:39:15.956Z,15.00
2022-10-13T09:41:44.498Z,15.01
2022-10-13T09:44:16.780Z,15.04
2022-10-13T09:46:55.305Z,15.09
2022-10-13T09:49:26.036Z,15.25
2022-10-13T09:51:52.690Z,15.32
2022-10-13T09:54:39.611Z,15.35
2022-10-13T09:57:19.143Z,15.42
2022-10-13T09:59:50.635Z,15.55
2022-10-13T10:02:40.920Z,15.63
2022-10-13T10:05:25.619Z,15.71
2022-10-13T10:08:03.035Z,15.42
2022-10-13T10:10:36.950Z,15.56
2022-10-13T10:13:11.533Z,15.46
2022-10-13T10:15:56.798Z,15.46
2022-10-13T10:18:39.830Z,15.67
2022-10-13T10:21:29.897Z,15.76
2022-10-13T10:23:59.367Z,16.00
2022-10-13T10:26:55.049Z,16.05
2022-10-13T10:29:50.358Z,16.06
2022-10-13T10:32:16.979Z,16.13
2022-10-13T10:34:53.506Z,16.21
2022-10-13T10:37:36.376Z,16.13
2022-10-13T10:40:33.630Z,16.21
2022-10-13T10:43:26.004Z,16.17
2022-10-13T10:45:56.748Z,16.21
2022-10-13T10:48:37.654Z,16.22
2022-10-13T10:51:11.259Z,16.25
2022-10-13T10:53:37.743Z,16.27
2022-10-13T10:56:31.738Z,16.25
2022-10-13T10:59:40.154Z,16.25
2022-10-13T11:02:06.607Z,16.32
2022-10-13T11:04:33.312Z,16.55
2022-10-13T11:06:59.849Z,16.69
2022-10-13T11:09:50.396Z,16.61
2022-10-13T11:12:20.541Z,16.51
2022-10-13T11:14:53.878Z,16.50
2022-10-13T11:17:26.245Z,16.52
2022-10-13T11:19:53.097Z,16.50
2022-10-13T11:22:22.629Z,16.58
2022-10-13T11:24:55.662Z,16.39
2022-10-13T11:27:26.487Z,16.43
2022-10-13T11:29:58.634Z,16.42
2022-10-13T11:32:25.171Z,16.54
2022-10-13T11:34:57.584Z,16.50
2022-10-13T11:37:31.033Z,16.47
2022-10-13T11:40:25.024Z,16.49
2022-10-13T11:43:10.113Z,16.52
2022-10-13T11:45:49.833Z,16.53
2022-10-13T11:48:34.594Z,16.51
2022-10-13T11:51:30.178Z,16.54
2022-10-13T11:54:05.890Z,16.61
2022-10-13T11:56:39.347Z,16.75
2022-10-13T11:59:25.444Z,16.72
2022-10-13T12:02:05.493Z,16.67
2022-10-13T12:04:32.236Z,16.82
2022-10-13T12:07:02.164Z,16.97
2022-10-13T12:09:31.427Z,16.90
2022-10-13T12:12:01.940Z,16.98
2022-10-13T12:14:50.624Z,17.05
2022-10-13T12:17:27.575Z,17.20
2022-10-13T12:19:56.867Z,17.20
2022-10-13T12:22:23.601Z,17.18
2022-10-13T12:25:06.959Z,17.32
2022-10-13T12:27:45.986Z,17.36
2022-10-13T12:30:42.009Z,17.30
2022-10-13T12:33:40.879Z,17.43
2022-10-13T12:36:25.174Z,17.50
2022-10-13T12:38:54.013Z,17.48
2022-10-13T12:41:33.306Z,17.50
2022-10-13T12:44:03.898Z,17.48
2022-10-13T12:46:42.905Z,17.46
2022-10-13T12:49:14.351Z,17.37
2022-10-13T12:51:42.935Z,17.53
2022-10-13T12:54:22.902Z,17.61
2022-10-13T12:56:55.302Z,17.56
2022-10-13T12:59:24.536Z,17.90
2022-10-13T13:02:03.056Z,18.05
2022-10-13T13:04:41.106Z,18.11
2022-10-13T13:07:28.260Z,17.98
2022-10-13T13:10:07.731Z,17.97
2022-10-13T13:12:37.897Z,18.01
2022-10-13T13:15:25.317Z,17.80
2022-10-13T13:17:58.414Z,17.58
2022-10-13T13:20:34.642Z,17.36
2022-10-13T13:23:01.279Z,17.48
2022-10-13T13:25:27.905Z,17.60
2022-10-13T13:27:54.559Z,17.40
2022-10-13T13:30:23.977Z,17.50
2022-10-13T13:32:50.841Z,17.51
2022-10-13T13:35:17.474Z,17.74
2022-10-13T13:37:51.412Z,17.57
2022-10-13T13:40:23.991Z,17.82
2022-10-13T13:42:50.656Z,17.87
2022-10-13T13:45:19.835Z,17.59
2022-10-13T13:47:46.520Z,17.70
2022-10-13T13:50:20.253Z,17.65
2022-10-13T13:52:56.170Z,17.50
2022-10-13T13:55:23.322Z,17.41
2022-10-13T13:57:49.906Z,17.56
2022-10-13T14:00:17.693Z,17.56
2022-10-13T14:02:50.415Z,17.69
2022-10-13T14:05:17.100Z,17.76
2022-10-13T14:07:43.727Z,17.49
2022-10-13T14:10:10.852Z,17.61
2022-10-13T14:12:37.878Z,17.55
2022-10-13T14:15:05.003Z,17.61
2022-10-13T14:17:31.533Z,17.60
2022-10-13T14:20:00.431Z,17.55
2022-10-13T14:22:27.270Z,17.69
2022-10-13T14:24:54.125Z,17.64
2022-10-13T14:27:20.831Z,17.74
2022-10-13T14:29:47.399Z,17.59
2022-10-13T14:32:15.476Z,17.55
2022-10-13T14:34:42.042Z,17.52
2022-10-13T14:37:08.621Z,17.50
2022-10-13T14:39:35.150Z,17.62
2022-10-13T14:42:01.811Z,17.43
2022-10-13T14:44:28.326Z,17.42
2022-10-13T14:46:54.853Z,17.33
2022-10-13T14:49:21.365Z,17.07
2022-10-13T14:51:47.978Z,17.14
2022-10-13T14:54:16.152Z,17.21
2022-10-13T14:56:44.483Z,16.99
2022-10-13T14:59:11.844Z,16.97
2022-10-13T15:01:41.316Z,16.77
2022-10-13T15:04:08.408Z,17.03
2022-10-13T15:06:35.728Z,17.00
2022-10-13T15:09:02.319Z,16.97
2022-10-13T15:11:28.904Z,16.83
2022-10-13T15:13:56.346Z,16.69
2022-10-13T15:16:26.137Z,16.89
2022-10-13T15:18:52.716Z,16.94
2022-10-13T15:21:19.403Z,17.03
2022-10-13T15:23:46.861Z,16.91
2022-10-13T15:26:15.159Z,16.98
2022-10-13T15:28:46.980Z,16.94
2022-10-13T15:31:15.906Z,16.88
2022-10-13T15:33:44.748Z,16.89
2022-10-13T15:36:11.392Z,16.81
2022-10-13T15:38:39.468Z,16.72
2022-10-13T15:41:07.326Z,16.72
2022-10-13T15:43:34.444Z,16.90
2022-10-13T15:46:03.381Z,16.76
2022-10-13T15:48:30.421Z,16.81
2022-10-13T15:50:56.956Z,16.84
2022-10-13T15:53:23.627Z,16.91
2022-10-13T15:55:50.228Z,16.98
2022-10-13T15:58:17.678Z,16.90
2022-10-13T16:00:44.940Z,16.71
2022-10-13T16:03:15.266Z,16.67
2022-10-13T16:05:43.324Z,16.69
2022-10-13T16:08:10.489Z,16.72
2022-10-13T16:10:42.271Z,16.73
2022-10-13T16:13:12.315Z,16.71
2022-10-13T16:15:38.933Z,16.58
2022-10-13T16:18:05.678Z,16.66
2022-10-13T16:20:34.987Z,16.77
2022-10-13T16:23:01.974Z,16.99
2022-10-13T16:25:29.273Z,17.03
2022-10-13T16:27:56.108Z,17.12
2022-10-13T16:30:22.656Z,17.04
2022-10-13T16:32:49.318Z,17.04
2022-10-13T16:35:15.993Z,16.98
2022-10-13T16:37:42.511Z,16.89
2022-10-13T16:40:09.519Z,16.83
2022-10-13T16:42:36.207Z,16.91
2022-10-13T16:45:03.466Z,16.93
2022-10-13T16:47:30.033Z,16.96
2022-10-13T16:49:56.590Z,16.97
2022-10-13T16:52:23.698Z,16.90
2022-10-13T16:54:50.292Z,16.81
2022-10-13T16:57:16.928Z,16.70
2022-10-13T16:59:43.453Z,16.60
2022-10-13T17:02:14.865Z,16.61
2022-10-13T17:04:42.332Z,16.51
2022-10-13T17:07:08.963Z,16.42
2022-10-13T17:09:35.493Z,16.57
2022-10-13T17:12:03.731Z,16.62
2022-10-13T17:14:30.507Z,16.76
2022-10-13T17:16:58.123Z,16.66
2022-10-13T17:19:25.613Z,16.65
2022-10-13T17:21:52.298Z,16.69
2022-10-13T17:24:18.839Z,16.67
2022-10-13T17:26:45.676Z,16.73
2022-10-13T17:29:12.354Z,16.54
2022-10-13T17:31:38.888Z,16.55
2022-10-13T17:34:06.171Z,16.28
2022-10-13T17:36:34.000Z,16.32
2022-10-13T17:39:09.731Z,16.35
2022-10-13T17:41:40.795Z,16.60
2022-10-13T17:44:07.346Z,16.53
2022-10-13T17:46:38.652Z,16.32
2022-10-13T17:49:07.912Z,16.44
2022-10-13T17:51:34.797Z,16.14
2022-10-13T17:54:01.612Z,15.87
2022-10-13T17:56:28.891Z,16.11
2022-10-13T17:58:55.557Z,16.45
2022-10-13T18:01:25.156Z,16.63
2022-10-13T18:03:57.086Z,16.56
2022-10-13T18:06:37.902Z,16.51
2022-10-13T18:09:06.838Z,16.54
2022-10-13T18:11:35.017Z,16.66
2022-10-13T18:14:01.767Z,16.65
2022-10-13T18:16:28.388Z,16.62
2022-10-13T18:18:55.007Z,16.63
2022-10-13T18:21:23.922Z,16.65
2022-10-13T18:23:51.620Z,16.63
2022-10-13T18:26:19.705Z,16.61
2022-10-13T18:28:48.314Z,16.61
2022-10-13T18:31:24.152Z,16.69
2022-10-13T18:33:52.309Z,16.61
2022-10-13T18:36:24.834Z,16.50
2022-10-13T18:38:53.582Z,16.36
2022-10-13T18:41:23.607Z,16.44
2022-10-13T18:43:50.636Z,16.29
2022-10-13T18:46:18.881Z,16.13
2022-10-13T18:48:47.246Z,15.83
2022-10-13T18:51:16.778Z,15.75
2022-10-13T18:53:45.161Z,16.11
2022-10-13T18:56:15.059Z,16.11
2022-10-13T18:58:42.316Z,16.23
2022-10-13T19:01:12.303Z,16.11
2022-10-13T19:03:40.594Z,16.19
2022-10-13T19:06:09.574Z,16.28
2022-10-13T19:08:36.146Z,16.13
2022-10-13T19:11:14.298Z,16.03
2022-10-13T19:13:41.283Z,15.94
2022-10-13T19:16:08.630Z,16.12
2022-10-13T19:18:35.966Z,16.03
2022-10-13T19:21:02.840Z,16.06
2022-10-13T19:23:29.613Z,16.15
2022-10-13T19:25:56.586Z,16.17
2022-10-13T19:28:23.397Z,15.63
2022-10-13T19:30:54.445Z,15.74
2022-10-13T19:33:21.066Z,15.73
2022-10-13T19:35:51.553Z,15.70
2022-10-13T19:38:18.493Z,15.77
2022-10-13T19:40:49.415Z,15.76
2022-10-13T19:43:17.250Z,15.81
2022-10-13T19:45:48.925Z,15.99
2022-10-13T19:48:16.333Z,16.22
2022-10-13T19:50:43.610Z,16.20
2022-10-13T19:53:14.317Z,16.25
2022-10-13T19:55:46.390Z,16.25
2022-10-13T19:58:15.892Z,16.28
2022-10-13T20:00:44.678Z,16.30
2022-10-13T20:03:12.365Z,16.21
2022-10-13T20:05:41.631Z,16.15
2022-10-13T20:08:10.302Z,15.92
2022-10-13T20:10:41.201Z,15.93
2022-10-13T20:13:08.660Z,15.98
2022-10-13T20:15:39.957Z,15.90
2022-10-13T20:18:07.145Z,15.68
2022-10-13T20:20:35.405Z,15.32
2022-10-13T20:23:01.999Z,15.45
2022-10-13T20:25:28.686Z,15.62
2022-10-13T20:27:55.278Z,15.66
2022-10-13T20:30:22.093Z,15.69
2022-10-13T20:32:48.674Z,15.84
2022-10-13T20:35:15.260Z,15.61
2022-10-13T20:37:41.813Z,15.77
2022-10-13T20:40:08.819Z,15.88
2022-10-13T20:42:35.606Z,15.85
2022-10-13T20:45:02.200Z,15.75
2022-10-13T20:47:28.756Z,15.86
2022-10-13T20:49:55.460Z,15.75
2022-10-13T20:52:22.017Z,15.85
2022-10-13T20:54:48.532Z,15.84
2022-10-13T20:57:15.087Z,15.90
2022-10-13T20:59:44.328Z,15.74
2022-10-13T21:02:12.954Z,15.92
2022-10-13T21:04:39.718Z,15.96
2022-10-13T21:07:06.260Z,15.67
2022-10-13T21:09:34.995Z,15.53
2022-10-13T21:12:01.555Z,15.63
2022-10-13T21:14:28.217Z,15.77
2022-10-13T21:16:54.764Z,15.74
2022-10-13T21:19:21.372Z,15.85
2022-10-13T21:21:47.893Z,15.87
2022-10-13T21:24:14.566Z,15.91
2022-10-13T21:26:41.487Z,15.80
2022-10-13T21:29:13.340Z,15.58
2022-10-13T21:31:39.877Z,15.44
2022-10-13T21:34:06.444Z,15.40
2022-10-13T21:36:33.766Z,15.41
2022-10-13T21:39:04.338Z,15.50
2022-10-13T21:41:32.543Z,15.58
2022-10-13T21:43:59.275Z,15.66
2022-10-13T21:46:31.404Z,15.54
2022-10-13T21:49:00.359Z,15.35
2022-10-13T21:51:34.064Z,15.08
2022-10-13T21:54:04.757Z,14.85
2022-10-13T21:56:32.551Z,14.62
2022-10-13T21:58:59.957Z,14.88
2022-10-13T22:01:26.650Z,15.03
2022-10-13T22:03:56.312Z,15.25
2022-10-13T22:06:25.872Z,15.37
2022-10-13T22:08:54.611Z,15.39
2022-10-13T22:11:23.429Z,15.32
2022-10-13T22:13:50.674Z,15.24
2022-10-13T22:16:22.988Z,15.39
2022-10-13T22:18:54.385Z,15.02
2022-10-13T22:21:23.467Z,14.85
2022-10-13T22:23:50.117Z,15.08
2022-10-13T22:26:18.077Z,15.33
2022-10-13T22:28:48.140Z,15.40
2022-10-13T22:31:15.044Z,15.36
2022-10-13T22:33:42.891Z,15.33
2022-10-13T22:36:17.875Z,15.43
2022-10-13T22:38:46.296Z,15.28
2022-10-13T22:41:14.625Z,15.37
2022-10-13T22:43:44.276Z,15.52
2022-10-13T22:46:12.741Z,15.58
2022-10-13T22:48:40.851Z,15.63
2022-10-13T22:51:10.399Z,15.54
2022-10-13T22:53:36.991Z,15.59
2022-10-13T22:56:12.732Z,15.53
2022-10-13T22:58:39.311Z,15.44
2022-10-13T23:01:08.526Z,15.34
2022-10-13T23:03:36.330Z,15.44
2022-10-13T23:06:04.124Z,15.47
2022-10-13T23:08:31.183Z,15.40
2022-10-13T23:10:57.935Z,15.29
2022-10-13T23:13:24.564Z,15.50
2022-10-13T23:15:52.952Z,15.55
2022-10-13T23:18:24.392Z,15.40
2022-10-13T23:20:55.791Z,15.28
2022-10-13T23:23:25.856Z,15.14
2022-10-13T23:25:52.377Z,15.50
2022-10-13T23:28:19.054Z,15.53
2022-10-13T23:30:45.676Z,15.53
2022-10-13T23:33:12.199Z,15.61
2022-10-13T23:35:39.619Z,15.60
2022-10-13T23:38:06.238Z,15.44
2022-10-13T23:40:34.668Z,15.09
2022-10-13T23:43:01.234Z,15.02
2022-10-13T23:45:27.735Z,14.96
2022-10-13T23:47:54.329Z,14.87
2022-10-13T23:50:21.797Z,15.15
2022-10-13T23:52:48.309Z,14.95
2022-10-13T23:55:15.087Z,14.83
2022-10-13T23:57:41.606Z,14.98
